createdAt,value
2023-02-05T00:00:02.981Z,14.80
2023-02-05T00:02:29.432Z,14.60
2023-02-05T00:04:56.144Z,15.13
2023-02-05T00:07:23.909Z,14.80
2023-02-05T00:09:50.339Z,18.58
2023-02-05T00:12:16.800Z,14.75
2023-02-05T00:14:43.333Z,15.32
2023-02-05T00:17:09.937Z,15.70
2023-02-05T00:19:36.590Z,14.40
2023-02-05T00:22:03.054Z,16.60
2023-02-05T00:24:29.454Z,15.32
2023-02-05T00:26:56.102Z,15.32
2023-02-05T00:29:22.679Z,13.95
2023-02-05T00:31:49.668Z,14.13
2023-02-05T00:34:16.991Z,14.30
2023-02-05T00:36:43.475Z,14.43
2023-02-05T00:39:11.440Z,17.02
2023-02-05T00:41:38.615Z,14.23
2023-02-05T00:44:05.457Z,14.05
2023-02-05T00:46:32.137Z,17.48
2023-02-05T00:48:58.722Z,16.02
2023-02-05T00:51:25.257Z,14.50
2023-02-05T00:53:51.806Z,15.43
2023-02-05T00:56:18.437Z,14.73
2023-02-05T00:58:49.981Z,16.30
2023-02-05T01:01:17.268Z,14.02
2023-02-05T01:03:44.081Z,16.17
2023-02-05T01:06:11.079Z,14.48
2023-02-05T01:08:37.631Z,14.55
2023-02-05T01:11:07.553Z,13.73
2023-02-05T01:13:34.236Z,14.50
2023-02-05T01:16:00.764Z,15.00
2023-02-05T01:18:27.218Z,15.57
2023-02-05T01:20:53.841Z,15.27
2023-02-05T01:23:20.298Z,14.57
2023-02-05T01:25:46.777Z,14.50
2023-02-05T01:28:14.110Z,14.38
2023-02-05T01:30:43.587Z,14.73
2023-02-05T01:33:10.222Z,15.65
2023-02-05T01:35:36.928Z,14.13
2023-02-05T01:38:03.459Z,14.05
2023-02-05T01:40:30.033Z,16.95
2023-02-05T01:42:56.511Z,15.00
2023-02-05T01:45:22.972Z,14.82
2023-02-05T01:47:51.685Z,13.82
2023-02-05T01:50:32.149Z,14.40
2023-02-05T01:53:02.510Z,13.15
2023-02-05T01:55:30.923Z,14.50
2023-02-05T01:58:00.623Z,13.27
2023-02-05T02:00:27.104Z,13.40
2023-02-05T02:02:53.843Z,15.32
2023-02-05T02:05:20.619Z,17.75
2023-02-05T02:07:47.268Z,14.40
2023-02-05T02:10:17.590Z,13.77
2023-02-05T02:12:47.448Z,14.60
2023-02-05T02:15:21.044Z,13.98
2023-02-05T02:17:53.765Z,12.82
2023-02-05T02:20:23.437Z,12.88
2023-02-05T02:22:56.247Z,14.00
2023-02-05T02:25:40.938Z,14.75
2023-02-05T02:28:17.976Z,13.55
2023-02-05T02:30:56.693Z,12.45
2023-02-05T02:33:38.593Z,12.32
2023-02-05T02:36:19.305Z,13.65
2023-02-05T02:39:12.480Z,13.30
2023-02-05T02:41:50.533Z,14.55
2023-02-05T02:44:37.365Z,12.77
2023-02-05T02:47:11.096Z,12.63
2023-02-05T02:49:44.014Z,12.60
2023-02-05T02:52:15.341Z,13.05
2023-02-05T02:54:46.155Z,13.02
2023-02-05T02:57:15.735Z,12.35
2023-02-05T02:59:45.099Z,13.40
2023-02-05T03:02:15.887Z,14.05
2023-02-05T03:05:03.798Z,13.85
2023-02-05T03:07:38.810Z,13.48
2023-02-05T03:10:11.179Z,13.18
2023-02-05T03:12:37.670Z,14.05
2023-02-05T03:18:01.903Z,12.65
2023-02-05T03:20:32.913Z,14.32
2023-02-05T03:22:59.700Z,15.20
2023-02-05T03:25:28.680Z,13.38
2023-02-05T03:27:56.592Z,12.90
2023-02-05T03:30:29.475Z,12.90
2023-02-05T03:33:12.538Z,13.60
2023-02-05T03:35:52.753Z,12.15
2023-02-05T03:41:08.568Z,12.50
2023-02-05T03:44:05.452Z,13.25
2023-02-05T03:46:48.114Z,13.25
2023-02-05T03:49:29.604Z,14.07
2023-02-05T03:52:27.153Z,12.80
2023-02-05T03:55:05.320Z,15.23
2023-02-05T03:57:56.509Z,14.25
2023-02-05T04:00:25.380Z,12.73
2023-02-05T04:02:51.837Z,13.50
2023-02-05T04:05:22.857Z,13.38
2023-02-05T04:07:50.349Z,12.95
2023-02-05T04:10:18.036Z,12.75
2023-02-05T04:12:45.085Z,13.40
2023-02-05T04:15:12.050Z,13.38
2023-02-05T04:17:39.258Z,14.75
2023-02-05T04:20:06.933Z,13.93
2023-02-05T04:22:33.735Z,12.55
2023-02-05T04:25:00.239Z,13.55
2023-02-05T04:27:26.698Z,13.15
2023-02-05T04:29:53.153Z,13.43
2023-02-05T04:32:19.622Z,13.15
2023-02-05T04:34:46.459Z,14.43
2023-02-05T04:37:13.055Z,12.30
2023-02-05T04:39:39.508Z,12.40
2023-02-05T04:42:06.137Z,13.68
2023-02-05T04:44:32.583Z,13.13
2023-02-05T04:46:59.640Z,14.45
2023-02-05T04:49:26.270Z,13.15
2023-02-05T04:51:52.729Z,13.55
2023-02-05T04:54:19.294Z,12.48
2023-02-05T04:56:46.877Z,12.43
2023-02-05T04:59:13.462Z,14.23
2023-02-05T05:01:40.627Z,12.93
2023-02-05T05:04:07.209Z,12.93
2023-02-05T05:06:33.705Z,12.38
2023-02-05T05:09:00.296Z,12.73
2023-02-05T05:11:26.845Z,12.05
2023-02-05T05:13:53.366Z,12.50
2023-02-05T05:16:19.944Z,13.38
2023-02-05T05:18:46.648Z,11.68
2023-02-05T05:21:13.192Z,14.48
2023-02-05T05:23:39.643Z,12.02
2023-02-05T05:26:12.034Z,13.15
2023-02-05T05:28:38.917Z,12.30
2023-02-05T05:31:17.357Z,13.05
2023-02-05T05:33:43.869Z,12.80
2023-02-05T05:36:10.517Z,13.38
2023-02-05T05:38:37.169Z,12.13
2023-02-05T05:41:22.762Z,12.93
2023-02-05T05:43:49.850Z,12.75
2023-02-05T05:46:23.029Z,19.23
2023-02-05T05:48:55.370Z,14.68
2023-02-05T05:51:23.038Z,14.18
2023-02-05T05:53:50.071Z,13.10
2023-02-05T05:56:17.626Z,13.48
2023-02-05T05:58:45.091Z,12.45
2023-02-05T06:01:13.030Z,13.23
2023-02-05T06:03:39.493Z,16.35
2023-02-05T06:06:07.731Z,13.30
2023-02-05T06:08:35.244Z,13.63
2023-02-05T06:11:01.800Z,13.23
2023-02-05T06:13:28.276Z,12.80
2023-02-05T06:15:55.042Z,12.98
2023-02-05T06:18:23.722Z,12.15
2023-02-05T06:20:50.538Z,13.07
2023-02-05T06:23:17.079Z,13.05
2023-02-05T06:25:43.518Z,12.43
2023-02-05T06:28:10.172Z,13.65
2023-02-05T06:30:37.103Z,14.82
2023-02-05T06:33:03.912Z,14.18
2023-02-05T06:35:30.394Z,14.27
2023-02-05T06:37:56.982Z,13.02
2023-02-05T06:40:25.980Z,13.05
2023-02-05T06:42:53.562Z,12.00
2023-02-05T06:45:20.310Z,16.52
2023-02-05T06:47:47.188Z,13.27
2023-02-05T06:50:13.864Z,13.82
2023-02-05T06:52:40.372Z,12.82
2023-02-05T06:55:07.377Z,13.95
2023-02-05T06:57:33.884Z,13.30
2023-02-05T07:00:00.673Z,13.07
2023-02-05T07:02:27.550Z,13.35
2023-02-05T07:04:54.094Z,14.70
2023-02-05T07:07:20.531Z,14.10
2023-02-05T07:09:47.034Z,13.27
2023-02-05T07:12:13.600Z,15.43
2023-02-05T07:14:41.536Z,13.85
2023-02-05T07:17:08.891Z,12.80
2023-02-05T07:19:36.961Z,14.00
2023-02-05T07:22:04.850Z,13.48
2023-02-05T07:24:31.663Z,13.10
2023-02-05T07:26:58.350Z,13.20
2023-02-05T07:29:25.242Z,13.20
2023-02-05T07:31:52.340Z,13.45
2023-02-05T07:34:19.403Z,13.73
2023-02-05T07:36:45.834Z,12.90
2023-02-05T07:39:12.264Z,12.75
2023-02-05T07:41:38.707Z,12.77
2023-02-05T07:44:05.254Z,13.70
2023-02-05T07:46:31.747Z,13.30
2023-02-05T07:48:58.305Z,14.55
2023-02-05T07:51:26.391Z,23.35
2023-02-05T07:53:53.361Z,18.83
2023-02-05T07:56:21.861Z,14.98
2023-02-05T07:58:49.554Z,14.27
2023-02-05T08:01:16.177Z,14.10
2023-02-05T08:03:43.365Z,16.35
2023-02-05T08:06:14.652Z,14.70
2023-02-05T08:08:44.569Z,13.77
2023-02-05T08:11:15.044Z,18.52
2023-02-05T08:13:42.575Z,14.18
2023-02-05T08:16:09.311Z,13.98
2023-02-05T08:18:35.840Z,15.32
2023-02-05T08:21:02.447Z,13.68
2023-02-05T08:23:29.011Z,15.25
2023-02-05T08:25:56.698Z,15.23
2023-02-05T08:28:25.082Z,14.07
2023-02-05T08:30:51.807Z,16.67
2023-02-05T08:33:18.419Z,14.05
2023-02-05T08:35:45.538Z,14.32
2023-02-05T08:38:11.960Z,14.25
2023-02-05T08:40:38.494Z,13.55
2023-02-05T08:43:05.038Z,13.20
2023-02-05T08:45:31.782Z,13.98
2023-02-05T08:47:58.344Z,18.42
2023-02-05T08:50:25.699Z,15.10
2023-02-05T08:52:52.159Z,13.73
2023-02-05T08:55:18.675Z,13.38
2023-02-05T08:57:45.696Z,13.85
2023-02-05T09:00:13.027Z,12.82
2023-02-05T09:02:42.420Z,13.65
2023-02-05T09:05:09.862Z,14.85
2023-02-05T09:07:38.634Z,12.13
2023-02-05T09:10:07.407Z,17.67
2023-02-05T09:12:33.942Z,13.88
2023-02-05T09:15:00.351Z,13.52
2023-02-05T09:17:27.360Z,16.13
2023-02-05T09:19:53.850Z,19.33
2023-02-05T09:22:20.929Z,14.30
2023-02-05T09:24:47.547Z,14.02
2023-02-05T09:27:14.966Z,14.80
2023-02-05T09:29:41.874Z,14.45
2023-02-05T09:32:08.617Z,13.63
2023-02-05T09:34:35.193Z,13.85
2023-02-05T09:37:01.611Z,13.70
2023-02-05T09:40:02.251Z,15.82
2023-02-05T09:42:56.403Z,15.38
2023-02-05T09:45:22.805Z,13.10
2023-02-05T09:48:06.244Z,13.98
2023-02-05T09:50:33.872Z,13.48
2023-02-05T09:53:05.931Z,13.70
2023-02-05T09:55:46.933Z,14.43
2023-02-05T09:58:23.348Z,16.60
2023-02-05T10:01:12.666Z,15.68
2023-02-05T10:03:54.590Z,14.27
2023-02-05T10:06:52.766Z,13.63
2023-02-05T10:09:41.206Z,17.35
2023-02-05T10:12:22.968Z,14.18
2023-02-05T10:15:01.428Z,14.63
2023-02-05T10:17:51.972Z,13.93
2023-02-05T10:20:45.780Z,14.07
2023-02-05T10:23:16.733Z,15.90
2023-02-05T10:26:08.966Z,14.45
2023-02-05T10:29:08.538Z,16.00
2023-02-05T10:31:57.974Z,14.50
2023-02-05T10:34:57.331Z,15.13
2023-02-05T10:37:57.840Z,14.93
2023-02-05T10:40:31.220Z,16.60
2023-02-05T10:43:05.181Z,14.77
2023-02-05T10:45:32.072Z,15.57
2023-02-05T10:48:04.438Z,14.80
2023-02-05T10:50:47.690Z,13.68
2023-02-05T10:53:19.180Z,15.93
2023-02-05T10:55:45.696Z,15.27
2023-02-05T10:58:48.091Z,16.63
2023-02-05T11:01:19.451Z,14.98
2023-02-05T11:03:52.549Z,15.18
2023-02-05T11:06:20.835Z,15.80
2023-02-05T11:08:47.835Z,14.35
2023-02-05T11:11:34.613Z,14.52
2023-02-05T11:14:05.535Z,13.77
2023-02-05T11:16:45.749Z,14.07
2023-02-05T11:21:55.244Z,14.30
2023-02-05T11:24:26.127Z,15.32
2023-02-05T11:27:30.764Z,15.13
2023-02-05T11:30:17.834Z,14.75
2023-02-05T11:32:45.657Z,15.52
2023-02-05T11:35:23.685Z,18.05
2023-02-05T11:38:17.614Z,18.23
2023-02-05T11:40:52.289Z,14.73
2023-02-05T11:43:27.282Z,15.55
2023-02-05T11:45:56.689Z,15.15
2023-02-05T11:48:34.255Z,15.48
2023-02-05T11:51:03.452Z,14.90
2023-02-05T11:53:32.962Z,14.75
2023-02-05T11:56:04.975Z,17.38
2023-02-05T11:58:37.020Z,16.17
2023-02-05T12:01:29.154Z,15.15
2023-02-05T12:04:12.461Z,15.48
2023-02-05T12:06:57.554Z,15.85
2023-02-05T12:09:27.279Z,15.18
2023-02-05T12:12:21.414Z,14.80
2023-02-05T12:15:06.800Z,19.30
2023-02-05T12:17:40.171Z,15.48
2023-02-05T12:20:23.370Z,16.02
2023-02-05T12:24:00.652Z,16.10
2023-02-05T12:26:33.256Z,16.48
2023-02-05T12:29:25.956Z,16.58
2023-02-05T12:32:20.351Z,17.27
2023-02-05T12:35:11.300Z,15.02
2023-02-05T12:37:43.955Z,15.52
2023-02-05T12:40:41.673Z,17.65
2023-02-05T12:43:27.042Z,18.67
2023-02-05T12:46:27.688Z,17.10
2023-02-05T12:49:01.100Z,16.60
2023-02-05T12:51:46.270Z,15.95
2023-02-05T12:54:28.046Z,20.25
2023-02-05T12:57:05.289Z,18.75
2023-02-05T12:59:48.485Z,18.52
2023-02-05T13:02:34.378Z,21.67
2023-02-05T13:05:19.249Z,15.90
2023-02-05T13:07:52.953Z,15.60
2023-02-05T13:10:28.304Z,15.25
2023-02-05T13:16:05.901Z,19.55
2023-02-05T13:18:41.450Z,14.98
2023-02-05T13:21:33.892Z,16.58
2023-02-05T13:24:40.337Z,15.18
2023-02-05T13:27:44.506Z,14.80
2023-02-05T13:30:19.568Z,16.13
2023-02-05T13:32:51.735Z,15.70
2023-02-05T13:35:20.090Z,15.90
2023-02-05T13:37:58.580Z,19.35
2023-02-05T13:40:43.843Z,20.10
2023-02-05T13:43:18.191Z,17.30
2023-02-05T13:46:07.404Z,15.88
2023-02-05T13:48:58.291Z,16.20
2023-02-05T13:51:33.766Z,17.10
2023-02-05T13:54:37.365Z,16.15
2023-02-05T13:57:38.402Z,18.90
2023-02-05T14:00:08.821Z,17.88
2023-02-05T14:02:44.986Z,17.33
2023-02-05T14:05:13.637Z,17.58
2023-02-05T14:07:51.553Z,20.02
2023-02-05T14:10:30.262Z,17.85
2023-02-05T14:16:24.263Z,17.05
2023-02-05T14:18:59.815Z,21.02
2023-02-05T14:21:35.138Z,18.70
2023-02-05T14:24:22.879Z,18.08
2023-02-05T14:26:52.324Z,16.90
2023-02-05T14:29:49.571Z,24.50
2023-02-05T14:32:28.130Z,17.98
2023-02-05T14:35:03.614Z,19.77
2023-02-05T14:37:35.193Z,18.05
2023-02-05T14:40:14.516Z,19.55
2023-02-05T14:42:42.220Z,18.63
2023-02-05T14:45:15.912Z,19.90
2023-02-05T14:47:47.146Z,28.48
2023-02-05T14:50:26.496Z,20.75
2023-02-05T14:52:57.727Z,30.30
2023-02-05T14:55:30.145Z,17.85
2023-02-05T14:58:04.107Z,18.20
2023-02-05T15:00:32.223Z,20.23
2023-02-05T15:03:04.469Z,24.27
2023-02-05T15:05:40.087Z,21.75
2023-02-05T15:08:28.356Z,24.67
2023-02-05T15:11:22.977Z,17.90
2023-02-05T15:14:20.962Z,22.20
2023-02-05T15:17:05.908Z,18.92
2023-02-05T15:19:46.274Z,20.48
2023-02-05T15:22:26.863Z,20.05
2023-02-05T15:24:54.614Z,21.60
2023-02-05T15:27:24.869Z,20.20
2023-02-05T15:32:32.786Z,22.00
2023-02-05T15:35:12.812Z,23.23
2023-02-05T15:37:48.785Z,21.67
2023-02-05T15:40:30.960Z,24.20
2023-02-05T15:43:22.270Z,19.20
2023-02-05T15:45:52.005Z,29.02
2023-02-05T15:48:31.009Z,22.50
2023-02-05T15:51:02.228Z,21.25
2023-02-05T15:53:34.516Z,21.60
2023-02-05T15:56:12.681Z,24.83
2023-02-05T15:58:45.724Z,19.98
2023-02-05T16:01:22.501Z,23.90
2023-02-05T16:03:49.185Z,22.15
2023-02-05T16:06:19.832Z,27.95
2023-02-05T16:08:48.129Z,20.42
2023-02-05T16:11:30.476Z,26.38
2023-02-05T16:14:24.192Z,44.50
2023-02-05T16:17:21.461Z,28.05
2023-02-05T16:19:50.608Z,31.60
2023-02-05T16:22:33.342Z,25.40
2023-02-05T16:25:06.584Z,29.92
2023-02-05T16:27:43.095Z,26.67
2023-02-05T16:30:43.582Z,32.72
2023-02-05T16:33:26.827Z,29.33
2023-02-05T16:35:54.097Z,33.88
2023-02-05T16:38:23.198Z,34.17
2023-02-05T16:40:53.541Z,36.25
2023-02-05T16:43:39.094Z,35.65
2023-02-05T16:46:20.740Z,37.88
2023-02-05T16:48:47.552Z,34.67
2023-02-05T16:51:31.961Z,39.78
2023-02-05T16:54:00.740Z,36.33
2023-02-05T16:56:32.368Z,43.72
2023-02-05T16:59:01.331Z,46.15
2023-02-05T17:01:36.698Z,39.47
2023-02-05T17:04:03.356Z,37.28
2023-02-05T17:06:35.908Z,41.72
2023-02-05T17:09:04.962Z,40.55
2023-02-05T17:11:34.782Z,41.67
2023-02-05T17:14:28.588Z,40.88
2023-02-05T17:17:03.287Z,43.10
2023-02-05T17:19:32.084Z,39.50
2023-02-05T17:22:13.813Z,41.60
2023-02-05T17:24:41.752Z,45.28
2023-02-05T17:27:38.163Z,49.05
2023-02-05T17:30:10.412Z,43.53
2023-02-05T17:32:37.523Z,41.65
2023-02-05T17:35:13.604Z,36.15
2023-02-05T17:37:40.052Z,35.17
2023-02-05T17:40:06.997Z,40.28
2023-02-05T17:42:33.422Z,38.88
2023-02-05T17:44:59.827Z,36.50
2023-02-05T17:47:26.292Z,38.08
2023-02-05T17:49:52.775Z,36.10
2023-02-05T17:52:19.323Z,47.90
2023-02-05T17:54:46.229Z,40.45
2023-02-05T17:57:19.224Z,43.97
2023-02-05T17:59:46.209Z,46.95
2023-02-05T18:02:13.418Z,46.30
2023-02-05T18:04:41.246Z,40.88
2023-02-05T18:07:25.260Z,49.65
2023-02-05T18:09:51.666Z,44.85
2023-02-05T18:12:18.213Z,46.42
2023-02-05T18:14:44.737Z,45.60
2023-02-05T18:17:11.261Z,50.90
2023-02-05T18:19:37.730Z,42.67
2023-02-05T18:22:05.492Z,44.92
2023-02-05T18:24:32.920Z,45.95
2023-02-05T18:26:59.398Z,56.55
2023-02-05T18:29:27.686Z,46.72
2023-02-05T18:31:54.067Z,54.58
2023-02-05T18:34:20.513Z,49.33
2023-02-05T18:36:46.931Z,50.50
2023-02-05T18:39:13.324Z,48.60
2023-02-05T18:41:40.948Z,52.20
2023-02-05T18:44:07.489Z,49.40
2023-02-05T18:46:34.879Z,61.67
2023-02-05T18:49:01.668Z,60.67
2023-02-05T18:51:28.319Z,52.75
2023-02-05T18:53:54.902Z,57.65
2023-02-05T18:56:24.165Z,53.25
2023-02-05T18:58:59.202Z,53.27
2023-02-05T19:01:26.575Z,58.58
2023-02-05T19:03:54.432Z,54.10
2023-02-05T19:06:21.728Z,56.72
2023-02-05T19:08:49.366Z,57.00
2023-02-05T19:11:20.293Z,55.03
2023-02-05T19:13:47.595Z,57.28
2023-02-05T19:16:16.240Z,60.95
2023-02-05T19:18:44.851Z,63.40
2023-02-05T19:21:19.671Z,59.88
2023-02-05T19:23:49.847Z,68.88
2023-02-05T19:26:19.298Z,63.33
2023-02-05T19:28:51.164Z,68.97
2023-02-05T19:31:17.765Z,71.30
2023-02-05T19:33:45.512Z,68.40
2023-02-05T19:36:12.000Z,64.22
2023-02-05T19:38:40.103Z,60.95
2023-02-05T19:41:14.857Z,70.00
2023-02-05T19:43:50.575Z,62.28
2023-02-05T19:46:18.679Z,64.82
2023-02-05T19:48:45.535Z,63.13
2023-02-05T19:51:13.624Z,66.28
2023-02-05T19:53:43.221Z,63.50
2023-02-05T19:56:15.360Z,62.65
2023-02-05T19:58:44.495Z,62.47
2023-02-05T20:01:19.246Z,67.03
2023-02-05T20:03:46.406Z,60.50
2023-02-05T20:06:15.801Z,56.83
2023-02-05T20:08:43.033Z,55.67
2023-02-05T20:11:09.558Z,57.88
2023-02-05T20:13:37.251Z,60.13
2023-02-05T20:16:06.441Z,55.55
2023-02-05T20:18:33.041Z,55.20
2023-02-05T20:20:59.550Z,48.78
2023-02-05T20:23:26.094Z,57.22
2023-02-05T20:26:01.110Z,61.55
2023-02-05T20:28:27.676Z,60.35
2023-02-05T20:31:12.602Z,58.67
2023-02-05T20:33:39.257Z,53.85
2023-02-05T20:36:07.801Z,56.33
2023-02-05T20:38:34.537Z,55.42
2023-02-05T20:41:10.328Z,58.08
2023-02-05T20:43:36.780Z,59.60
2023-02-05T20:46:04.268Z,79.07
2023-02-05T20:48:30.867Z,76.28
2023-02-05T20:51:07.630Z,73.53
2023-02-05T20:53:34.164Z,64.40
2023-02-05T20:56:05.589Z,74.18
2023-02-05T20:58:32.765Z,80.03
2023-02-05T21:01:26.452Z,75.75
2023-02-05T21:03:55.442Z,82.78
2023-02-05T21:06:22.953Z,72.50
2023-02-05T21:08:51.749Z,75.10
2023-02-05T21:11:19.598Z,66.95
2023-02-05T21:13:47.677Z,64.63
2023-02-05T21:16:16.282Z,73.10
2023-02-05T21:18:46.790Z,71.50
2023-02-05T21:21:17.065Z,71.18
2023-02-05T21:23:45.908Z,74.38
2023-02-05T21:26:24.714Z,77.75
2023-02-05T21:28:59.336Z,73.63
2023-02-05T21:31:33.622Z,72.93
2023-02-05T21:34:05.124Z,77.22
2023-02-05T21:36:31.827Z,77.55
2023-02-05T21:38:58.356Z,92.55
2023-02-05T21:41:25.383Z,90.05
2023-02-05T21:43:54.425Z,77.55
2023-02-05T21:46:22.451Z,92.78
2023-02-05T21:48:50.738Z,82.20
2023-02-05T21:51:18.767Z,83.88
2023-02-05T21:53:45.664Z,80.60
2023-02-05T21:56:14.647Z,83.38
2023-02-05T21:58:41.541Z,68.43
2023-02-05T22:01:12.737Z,89.28
2023-02-05T22:03:40.323Z,83.97
2023-02-05T22:06:07.819Z,81.97
2023-02-05T22:08:35.781Z,85.07
2023-02-05T22:11:04.001Z,78.72
2023-02-05T22:13:32.759Z,88.50
2023-02-05T22:16:07.986Z,82.15
2023-02-05T22:18:35.519Z,79.90
2023-02-05T22:21:22.504Z,76.82
2023-02-05T22:23:50.577Z,83.43
2023-02-05T22:26:18.777Z,73.75
2023-02-05T22:28:46.479Z,81.00
2023-02-05T22:31:16.066Z,81.18
2023-02-05T22:33:46.872Z,78.65
2023-02-05T22:36:16.006Z,80.00
2023-02-05T22:38:42.835Z,74.82
2023-02-05T22:41:14.456Z,83.40
2023-02-05T22:43:41.068Z,82.07
2023-02-05T22:46:09.757Z,78.85
2023-02-05T22:48:38.260Z,77.07
2023-02-05T22:51:07.550Z,80.75
2023-02-05T22:53:34.573Z,76.27
2023-02-05T22:56:05.387Z,79.72
2023-02-05T22:58:32.671Z,76.85
2023-02-05T23:00:59.285Z,77.38
2023-02-05T23:03:25.782Z,75.18
2023-02-05T23:05:52.911Z,81.85
2023-02-05T23:08:19.321Z,79.93
2023-02-05T23:10:45.983Z,82.18
2023-02-05T23:13:12.448Z,79.90
2023-02-05T23:15:38.925Z,77.90
2023-02-05T23:18:05.499Z,81.38
2023-02-05T23:20:32.401Z,85.40
2023-02-05T23:22:58.811Z,74.97
2023-02-05T23:25:25.506Z,73.35
2023-02-05T23:27:52.073Z,81.40
2023-02-05T23:30:18.696Z,75.72
2023-02-05T23:32:45.308Z,66.72
2023-02-05T23:35:11.733Z,79.10
2023-02-05T23:37:38.140Z,70.97
2023-02-05T23:40:04.928Z,82.10
2023-02-05T23:42:31.327Z,74.68
2023-02-05T23:44:57.720Z,80.10
2023-02-05T23:47:24.125Z,77.00
2023-02-05T23:49:50.574Z,68.65
2023-02-05T23:52:16.957Z,69.32
2023-02-05T23:54:43.450Z,66.53
2023-02-05T23:57:09.929Z,62.20
2023-02-05T23:59:36.429Z,69.00
